Time;durP1;ratioP1;P1;durP2;ratioP2;P2;SDS_P1;SDS_P2;PMS_P1;PMS_P2;Temp;Humidity;BMP_temperature;BMP_pressure;BME280_temperature;BME280_humidity;BME280_pressure;Samples;Min_cycle;Max_cycle;Signal;HPM_P1;HPM_P2
2021/12/24 00:01:39;;;;;;;;;39.00;33.50;;;;;9.34;76.66;100755.56;4997215;28;47296;-54
2021/12/24 00:04:05;;;;;;;;;43.00;31.50;;;;;9.31;76.87;100745.22;4996952;28;45411;-52
2021/12/24 00:06:30;;;;;;;;;35.25;29.25;;;;;9.28;76.79;100748.16;4997374;28;45415;-53
2021/12/24 00:08:55;;;;;;;;;30.25;26.50;;;;;9.21;77.28;100741.72;4997386;28;45349;-49
2021/12/24 00:11:21;;;;;;;;;38.00;30.00;;;;;9.25;76.54;100751.91;4997002;28;45992;-53
2021/12/24 00:13:49;;;;;;;;;32.75;29.50;;;;;9.22;76.45;100752.19;4997149;28;45396;-50
2021/12/24 00:16:25;;;;;;;;;38.00;28.75;;;;;9.24;76.80;100749.41;5014028;28;45410;-51
2021/12/24 00:35:32;;;;;;;;;45.50;32.00;;;;;9.27;76.73;100740.31;4956773;28;45367;-54
2021/12/24 00:38:03;;;;;;;;;35.25;30.25;;;;;9.19;76.77;100725.09;4957526;28;45456;-52
2021/12/24 00:40:30;;;;;;;;;40.25;31.50;;;;;9.28;76.33;100734.88;4957454;28;45402;-52
2021/12/24 00:42:57;;;;;;;;;29.75;27.25;;;;;9.30;76.68;100729.44;4957423;28;45407;-51
2021/12/24 00:45:26;;;;;;;;;35.25;29.00;;;;;9.30;77.24;100729.44;4957225;28;45528;-50
2021/12/24 00:47:52;;;;;;;;;33.50;26.50;;;;;9.31;77.22;100721.31;4957427;28;45422;-52
2021/12/24 00:50:22;;;;;;;;;32.00;28.75;;;;;9.32;76.39;100716.88;4957594;28;45424;-53
2021/12/24 00:55:43;;;;;;;;;44.50;35.00;;;;;9.32;76.87;100709.75;4899362;29;45442;-52
2021/12/24 00:58:08;;;;;;;;;31.25;21.75;;;;;9.29;76.77;100693.25;4920709;28;45431;-52
2021/12/24 01:00:39;;;;;;;;;33.75;26.50;;;;;9.30;76.93;100689.59;4976981;28;45264;-52
2021/12/24 01:03:11;;;;;;;;;33.50;29.75;;;;;9.29;76.54;100698.56;4960241;28;47103;-53
2021/12/24 01:05:38;;;;;;;;;39.00;32.25;;;;;9.20;76.34;100673.69;4976656;28;45421;-54
2021/12/24 01:08:04;;;;;;;;;43.50;33.00;;;;;9.22;76.38;100672.56;4976509;28;45342;-52
2021/12/24 01:10:35;;;;;;;;;39.50;31.75;;;;;9.27;76.64;100676.59;4976857;28;45335;-50
2021/12/24 01:13:01;;;;;;;;;44.25;36.50;;;;;9.20;76.20;100663.06;4976448;28;46232;-51
2021/12/24 01:15:29;;;;;;;;;44.25;36.25;;;;;9.20;76.73;100663.06;4976319;28;45426;-53
2021/12/24 01:18:08;;;;;;;;;39.25;33.75;;;;;9.18;76.34;100665.84;4992487;28;45389;-51
2021/12/24 01:25:57;;;;;;;;;40.00;29.50;;;;;9.13;76.44;100659.28;4918074;28;45648;-53
2021/12/24 01:39:27;;;;;;;;;33.00;30.75;;;;;9.11;76.46;100670.06;4937451;28;45532;-52
2021/12/24 01:44:38;;;;;;;;;38.75;28.50;;;;;9.12;75.89;100670.88;4937278;28;45767;-54
2021/12/24 01:47:07;;;;;;;;;32.75;30.00;;;;;9.14;77.01;100675.09;4936018;28;45361;-52
2021/12/24 01:49:33;;;;;;;;;33.50;27.25;;;;;9.16;76.75;100672.28;4937120;28;45406;-53
2021/12/24 01:52:02;;;;;;;;;37.00;32.00;;;;;9.16;76.61;100669.63;4937512;28;45368;-52
2021/12/24 01:54:27;;;;;;;;;34.50;29.00;;;;;9.11;76.39;100667.41;4936977;28;47210;-51
2021/12/24 01:56:53;;;;;;;;;36.25;30.50;;;;;9.17;76.45;100679.28;4936962;28;45477;-50
2021/12/24 01:59:18;;;;;;;;;36.75;28.50;;;;;9.17;76.50;100673.97;4937137;28;45317;-50
2021/12/24 02:01:44;;;;;;;;;41.00;28.00;;;;;9.17;77.02;100671.31;4938921;28;45266;-51
2021/12/24 02:04:11;;;;;;;;;29.50;28.00;;;;;9.17;76.64;100669.50;5037193;28;46247;-51
2021/12/24 02:06:39;;;;;;;;;38.25;30.50;;;;;9.14;77.34;100666.28;5037313;28;45470;-52
2021/12/24 02:09:05;;;;;;;;;31.50;29.25;;;;;9.19;76.72;100680.81;5037186;28;45484;-52
2021/12/24 02:11:37;;;;;;;;;34.00;29.75;;;;;9.19;77.04;100677.34;5037452;28;45314;-49
2021/12/24 02:14:07;;;;;;;;;38.25;29.75;;;;;9.20;76.75;100687.78;5036961;28;47057;-52
2021/12/24 02:16:45;;;;;;;;;44.75;34.00;;;;;9.18;77.15;100679.13;5037041;28;45421;-52
2021/12/24 02:30:07;;;;;;;;;42.00;35.50;;;;;9.13;77.13;100646.03;5036934;28;45348;-53
2021/12/24 02:32:33;;;;;;;;;45.75;31.75;;;;;9.16;77.51;100648.41;5037238;28;45369;-53
2021/12/24 02:34:59;;;;;;;;;47.50;29.75;;;;;9.08;77.10;100637.66;5036986;28;46064;-54
2021/12/24 02:37:24;;;;;;;;;37.75;33.75;;;;;9.17;76.96;100653.56;5036948;28;45203;-52
2021/12/24 02:39:50;;;;;;;;;31.75;29.75;;;;;9.17;77.17;100635.00;5036942;28;45270;-52
2021/12/24 02:42:22;;;;;;;;;39.00;36.00;;;;;9.15;76.90;100644.91;5037083;28;45469;-53
2021/12/24 02:44:50;;;;;;;;;47.25;39.00;;;;;9.16;76.73;100643.09;5036636;28;46170;-52
2021/12/24 02:54:58;;;;;;;;;43.00;35.00;;;;;9.09;77.02;100629.53;5036718;28;45468;-53
2021/12/24 02:57:27;;;;;;;;;38.00;24.25;;;;;9.12;76.42;100629.25;5037449;28;45509;-54
2021/12/24 03:00:06;;;;;;;;;43.25;37.00;;;;;9.11;76.82;100638.22;5040364;28;45392;-49
2021/12/24 03:02:32;;;;;;;;;37.25;28.50;;;;;9.12;77.15;100634.56;5040429;28;45297;-52
2021/12/24 03:04:59;;;;;;;;;40.00;34.00;;;;;9.12;77.01;100636.41;5040243;28;47090;-53
2021/12/24 03:07:24;;;;;;;;;39.50;33.00;;;;;8.91;76.93;100597.56;5040116;28;45345;-51
2021/12/24 03:09:50;;;;;;;;;42.75;31.50;;;;;9.11;76.35;100632.91;5040117;28;45309;-51
2021/12/24 03:12:16;;;;;;;;;37.25;32.75;;;;;9.11;77.33;100635.56;5040295;28;45463;-50
2021/12/24 03:14:41;;;;;;;;;39.50;32.50;;;;;9.08;76.90;100619.06;5039974;28;45720;-51
2021/12/24 03:17:12;;;;;;;;;41.25;35.00;;;;;9.13;76.61;100630.94;5039804;28;45435;-55
2021/12/24 03:19:38;;;;;;;;;38.75;30.50;;;;;9.13;77.22;100636.25;5040192;28;45450;-51
2021/12/24 03:22:49;;;;;;;;;49.25;37.00;;;;;9.11;76.90;100630.25;5040184;28;45544;-50
2021/12/24 03:24:56;;;;;;;;;53.00;38.00;;;;;9.07;77.28;100617.41;5038321;28;45793;-51
2021/12/24 03:27:22;;;;;;;;;40.25;35.25;;;;;9.14;76.76;100622.03;5039748;28;45342;-52
2021/12/24 03:29:49;;;;;;;;;49.75;35.50;;;;;9.15;76.78;100620.19;5039946;28;45200;-51
2021/12/24 03:32:14;;;;;;;;;39.50;31.75;;;;;9.15;76.94;100612.25;5040182;28;45445;-53
2021/12/24 03:34:40;;;;;;;;;35.50;29.25;;;;;9.16;76.94;100603.28;5039987;28;46296;-53
2021/12/24 03:37:06;;;;;;;;;40.75;32.00;;;;;9.16;77.04;100595.31;5039636;28;45407;-52
2021/12/24 03:39:31;;;;;;;;;32.25;28.25;;;;;9.11;76.89;100593.09;5040071;28;45379;-53
2021/12/24 03:41:57;;;;;;;;;39.25;34.00;;;;;9.14;77.03;100599.94;5040010;28;45258;-54
2021/12/24 03:44:31;;;;;;;;;37.25;34.50;;;;;9.16;76.67;100601.47;5039232;28;46826;-52
2021/12/24 03:47:04;;;;;;;;;29.25;27.00;;;;;9.14;76.21;100595.47;5039620;28;45375;-54
2021/12/24 03:49:52;;;;;;;;;38.75;33.75;;;;;9.15;76.96;100602.47;5039379;28;45235;-54
2021/12/24 03:52:39;;;;;;;;;35.25;29.00;;;;;9.16;77.03;100603.28;5039478;28;45293;-53
2021/12/24 03:55:05;;;;;;;;;42.00;32.75;;;;;9.15;76.95;100610.41;5039359;28;46981;-51
2021/12/24 03:57:41;;;;;;;;;38.00;32.00;;;;;9.15;77.00;100602.47;5039076;28;46062;-52
2021/12/24 04:00:12;;;;;;;;;35.50;32.50;;;;;9.14;77.01;100590.16;5039542;28;45255;-51
2021/12/24 04:02:38;;;;;;;;;33.50;31.50;;;;;9.10;77.32;100572.84;5039516;28;45274;-54
2021/12/24 04:05:04;;;;;;;;;41.50;31.50;;;;;9.11;76.46;100577.19;5038960;28;46156;-51
2021/12/24 04:07:29;;;;;;;;;37.75;32.75;;;;;9.12;77.35;100575.34;5039433;28;45332;-53
2021/12/24 04:12:39;;;;;;;;;31.00;26.50;;;;;9.10;76.95;100575.50;5039307;28;45309;-49
2021/12/24 04:15:05;;;;;;;;;34.75;30.00;;;;;9.12;76.88;100572.69;5038983;28;46172;-53
2021/12/24 04:17:33;;;;;;;;;39.25;33.50;;;;;9.12;77.07;100570.88;5038996;28;45306;-50
2021/12/24 04:25:28;;;;;;;;;35.75;29.00;;;;;9.12;77.50;100570.88;5038775;28;45871;-53
2021/12/24 04:27:57;;;;;;;;;35.75;26.00;;;;;9.11;77.53;100555.94;5038859;28;45308;-51
2021/12/24 04:30:27;;;;;;;;;32.75;28.75;;;;;9.10;77.91;100545.47;5020882;28;45282;-51
2021/12/24 04:51:19;;;;;;;;;39.25;34.50;;;;;9.09;78.11;100530.53;5038541;28;45298;-52
2021/12/24 05:02:24;;;;;;;;;36.50;31.00;;;;;9.05;77.53;100529.97;5038461;28;45438;-52
2021/12/24 05:04:55;;;;;;;;;38.00;30.50;;;;;9.05;78.41;100529.13;5038384;28;45461;-53
2021/12/24 05:10:28;;;;;;;;;35.75;29.25;;;;;9.04;78.33;100525.66;4956893;28;45457;-52
2021/12/24 05:12:54;;;;;;;;;35.75;30.00;;;;;9.04;77.88;100535.44;4957217;28;45518;-52
2021/12/24 05:15:20;;;;;;;;;33.00;29.25;;;;;9.06;78.07;100533.44;4957124;28;45353;-53
2021/12/24 05:23:07;;;;;;;;;39.50;29.50;;;;;9.07;78.31;100522.72;4976608;28;45431;-52
2021/12/24 05:25:40;;;;;;;;;32.00;25.25;;;;;9.05;78.77;100521.16;4976722;28;45364;-53
2021/12/24 05:28:06;;;;;;;;;32.00;26.00;;;;;9.04;78.89;100517.69;4976420;28;45517;-53
2021/12/24 05:30:31;;;;;;;;;29.25;25.25;;;;;9.02;78.35;100516.13;4976308;28;45350;-54
2021/12/24 05:32:56;;;;;;;;;35.50;29.00;;;;;9.00;78.43;100511.00;4976374;28;45426;-53
2021/12/24 05:35:22;;;;;;;;;40.50;29.50;;;;;9.03;79.04;100513.38;4960524;28;45447;-53
2021/12/24 05:37:47;;;;;;;;;39.50;26.00;;;;;8.96;78.20;100498.97;4959989;28;46119;-51
2021/12/24 05:40:13;;;;;;;;;37.75;26.50;;;;;8.95;79.76;100513.22;4976165;28;45255;-53
2021/12/24 05:42:38;;;;;;;;;30.50;26.75;;;;;8.93;78.94;100513.38;4976470;28;45382;-52
2021/12/24 05:45:06;;;;;;;;;38.25;27.50;;;;;8.88;79.03;100499.69;4985696;28;45569;-52
2021/12/24 05:47:32;;;;;;;;;34.25;31.25;;;;;8.86;79.75;100491.06;5037604;28;46258;-53
2021/12/24 05:49:59;;;;;;;;;28.00;25.00;;;;;8.94;79.60;100506.25;5037708;28;45550;-52
2021/12/24 05:52:24;;;;;;;;;40.50;31.25;;;;;8.92;79.20;100508.19;5037670;28;45436;-52
2021/12/24 05:54:50;;;;;;;;;31.75;27.00;;;;;8.93;79.99;100513.38;5038024;28;45317;-53
2021/12/24 05:57:15;;;;;;;;;32.75;29.50;;;;;8.91;80.17;100523.28;5037438;28;45331;-51
2021/12/24 05:59:41;;;;;;;;;37.00;27.25;;;;;8.87;80.88;100531.66;5037408;28;45377;-52
2021/12/24 06:02:07;;;;;;;;;41.75;31.50;;;;;8.89;80.67;100529.69;5037888;28;45297;-52
2021/12/24 06:04:32;;;;;;;;;30.00;28.00;;;;;8.90;80.53;100528.75;5037715;28;45171;-50
2021/12/24 06:06:58;;;;;;;;;40.50;34.00;;;;;8.91;80.30;100525.09;5037248;28;46155;-51
2021/12/24 06:09:24;;;;;;;;;42.25;29.50;;;;;8.94;80.60;100520.38;5037201;28;45346;-52
2021/12/24 06:11:49;;;;;;;;;31.75;27.25;;;;;8.97;81.01;100527.19;5037491;28;45444;-50
2021/12/24 06:14:15;;;;;;;;;32.25;26.50;;;;;8.95;80.41;100522.03;5037745;28;45415;-52
2021/12/24 06:16:59;;;;;;;;;42.25;29.00;;;;;8.98;80.26;100528.88;5036976;28;45388;-52
2021/12/24 06:19:26;;;;;;;;;37.00;27.50;;;;;8.98;80.49;100527.06;5037247;28;45321;-52
2021/12/24 06:21:52;;;;;;;;;34.50;30.75;;;;;9.04;80.97;100540.72;5037208;28;45388;-52
2021/12/24 06:24:19;;;;;;;;;42.75;31.75;;;;;8.99;81.23;100535.84;5037241;28;45422;-53
2021/12/24 06:26:45;;;;;;;;;37.75;26.00;;;;;8.90;81.10;100513.66;5036989;28;46225;-51
2021/12/24 06:29:10;;;;;;;;;30.75;25.75;;;;;8.98;81.13;100526.22;5036873;28;45480;-51
2021/12/24 06:31:35;;;;;;;;;38.00;27.50;;;;;9.04;81.22;100524.81;5036346;28;45395;-53
2021/12/24 06:34:01;;;;;;;;;40.25;33.25;;;;;8.98;82.27;100518.25;5037300;28;45313;-53
2021/12/24 06:36:27;;;;;;;;;40.25;31.00;;;;;9.04;81.96;100524.81;5036867;28;45189;-54
2021/12/24 06:38:52;;;;;;;;;33.75;28.00;;;;;9.06;81.36;100513.09;5036924;28;45405;-50
2021/12/24 06:41:18;;;;;;;;;44.25;29.25;;;;;9.06;81.04;100510.44;5036886;28;45299;-53
2021/12/24 06:43:43;;;;;;;;;34.25;29.25;;;;;9.07;81.46;100512.09;5037112;28;45319;-52
2021/12/24 06:46:12;;;;;;;;;39.00;33.00;;;;;9.02;81.81;100500.22;5036633;28;46042;-52
2021/12/24 06:48:38;;;;;;;;;36.00;31.75;;;;;9.09;81.81;100504.00;5036680;28;45327;-52
2021/12/24 06:51:04;;;;;;;;;33.75;27.25;;;;;9.07;82.13;100505.97;5036764;28;45338;-53
2021/12/24 06:53:29;;;;;;;;;36.75;27.50;;;;;9.05;81.54;100506.09;5036864;28;45349;-50
2021/12/24 06:55:55;;;;;;;;;34.50;28.00;;;;;9.08;81.93;100507.63;5036514;28;46316;-49
2021/12/24 06:58:20;;;;;;;;;38.75;29.25;;;;;9.07;82.51;100512.09;5036721;28;45378;-52
2021/12/24 07:00:46;;;;;;;;;34.75;27.00;;;;;9.06;82.03;100515.75;5036570;28;45515;-52
2021/12/24 07:03:11;;;;;;;;;32.75;28.50;;;;;9.07;81.68;100509.44;5036956;28;45307;-53
2021/12/24 07:05:37;;;;;;;;;33.50;28.50;;;;;9.07;81.53;100513.91;5036317;28;46045;-51
2021/12/24 07:08:03;;;;;;;;;29.25;28.25;;;;;9.08;81.80;100500.50;5036558;28;46138;-53
2021/12/24 07:10:28;;;;;;;;;30.00;27.50;;;;;9.10;81.66;100505.66;5036680;28;45347;-50
2021/12/24 07:12:54;;;;;;;;;35.00;28.75;;;;;9.08;82.23;100512.94;5036729;28;45251;-52
2021/12/24 07:15:19;;;;;;;;;36.75;31.25;;;;;9.05;82.88;100506.09;5036003;28;46408;-53
2021/12/24 07:17:45;;;;;;;;;34.00;27.50;;;;;9.06;83.16;100506.91;5036534;28;45382;-53
2021/12/24 07:20:11;;;;;;;;;31.00;28.00;;;;;9.05;82.79;100510.56;5036600;28;45299;-50
2021/12/24 07:22:36;;;;;;;;;32.25;27.25;;;;;9.07;83.56;100498.00;5036855;28;45397;-52
2021/12/24 07:25:04;;;;;;;;;33.00;28.50;;;;;9.05;83.80;100503.44;5035329;28;46359;-53
2021/12/24 07:27:29;;;;;;;;;30.00;23.00;;;;;9.05;83.48;100495.47;5036277;28;46156;-52
2021/12/24 07:29:55;;;;;;;;;32.25;25.75;;;;;9.07;83.87;100493.53;5036438;28;46249;-48
2021/12/24 07:32:20;;;;;;;;;37.75;30.50;;;;;9.08;83.82;100497.84;5036634;28;45334;-50
2021/12/24 07:34:45;;;;;;;;;35.50;31.75;;;;;9.08;83.00;100494.34;5036456;28;45401;-51
2021/12/24 07:37:11;;;;;;;;;31.50;24.75;;;;;9.10;83.67;100487.06;5036221;28;45349;-49
2021/12/24 07:39:36;;;;;;;;;32.50;23.50;;;;;9.12;83.48;100479.81;5036361;28;45346;-54
2021/12/24 07:42:02;;;;;;;;;29.75;25.75;;;;;9.13;82.12;100492.09;5036472;28;45485;-50
2021/12/24 07:44:29;;;;;;;;;33.25;25.00;;;;;9.14;83.03;100476.06;5038435;28;47173;-53
2021/12/24 07:46:58;;;;;;;;;34.75;26.00;;;;;9.14;82.78;100476.06;5039598;28;45233;-53
2021/12/24 07:54:22;;;;;;;;;36.25;28.25;;;;;9.06;83.87;100498.97;5039527;28;46267;-51
2021/12/24 07:56:47;;;;;;;;;27.50;24.50;;;;;9.12;83.95;100507.19;5039419;28;45335;-48
2021/12/24 07:59:14;;;;;;;;;27.25;21.50;;;;;9.15;83.65;100501.63;5039752;28;45676;-51
2021/12/24 08:01:43;;;;;;;;;28.75;20.75;;;;;9.16;83.21;100491.81;5021542;28;45567;-48
2021/12/24 08:04:09;;;;;;;;;32.25;21.75;;;;;9.17;84.21;100489.03;5039144;28;47408;-51
2021/12/24 08:06:34;;;;;;;;;28.50;21.75;;;;;9.19;84.56;100487.06;5039354;28;45198;-48
2021/12/24 08:08:59;;;;;;;;;17.50;16.25;;;;;9.19;83.82;100487.06;5039452;28;45310;-52
2021/12/24 08:11:25;;;;;;;;;30.25;17.50;;;;;9.15;83.63;100469.75;5039396;28;45319;-52
2021/12/24 08:13:50;;;;;;;;;23.50;19.50;;;;;9.23;83.01;100480.50;5039062;28;46281;-49
2021/12/24 08:16:16;;;;;;;;;24.50;20.50;;;;;9.19;84.61;100460.53;5038980;28;45246;-52
2021/12/24 08:18:43;;;;;;;;;29.00;20.00;;;;;9.27;84.00;100467.78;5039235;28;45366;-52
2021/12/24 08:21:09;;;;;;;;;24.75;15.25;;;;;9.28;83.60;100476.56;5039263;28;45591;-52
2021/12/24 08:23:34;;;;;;;;;19.50;15.50;;;;;9.30;83.46;100471.94;5038645;28;46562;-52
2021/12/24 08:26:00;;;;;;;;;20.50;15.50;;;;;9.31;83.59;100471.78;5038914;28;45354;-51
2021/12/24 08:28:27;;;;;;;;;28.00;19.50;;;;;9.32;83.75;100464.69;5038979;28;45352;-50
2021/12/24 08:30:53;;;;;;;;;25.00;18.25;;;;;9.35;84.09;100470.50;5038798;28;45573;-52
2021/12/24 08:33:19;;;;;;;;;22.00;19.25;;;;;9.38;84.19;100467.56;5038584;28;45317;-48
2021/12/24 08:35:45;;;;;;;;;22.25;16.50;;;;;9.40;84.15;100472.75;5038358;28;45303;-53
2021/12/24 08:38:10;;;;;;;;;24.00;20.00;;;;;9.45;83.09;100478.47;5038930;28;45247;-51
2021/12/24 08:40:35;;;;;;;;;21.75;18.25;;;;;9.47;84.11;100474.66;5038754;28;45249;-52
2021/12/24 08:43:01;;;;;;;;;22.67;18.00;;;;;9.50;83.95;100466.41;5038470;28;46921;-50
2021/12/24 08:45:27;;;;;;;;;23.75;17.50;;;;;9.44;83.42;100448.44;5038467;28;46217;-52
2021/12/24 08:47:52;;;;;;;;;18.00;15.33;;;;;9.53;83.92;100461.81;5038610;28;45412;-49
2021/12/24 08:50:17;;;;;;;;;22.33;18.33;;;;;9.46;83.96;100446.44;5038912;28;45326;-52
2021/12/24 08:52:45;;;;;;;;;21.25;19.50;;;;;9.58;83.27;100455.06;5020378;28;47253;-50
2021/12/24 08:55:11;;;;;;;;;23.50;19.00;;;;;9.60;83.72;100450.44;5037871;28;45380;-52
2021/12/24 08:57:38;;;;;;;;;26.50;20.50;;;;;9.62;83.57;100452.97;5038739;28;45425;-51
2021/12/24 09:00:05;;;;;;;;;30.25;23.00;;;;;9.64;82.89;100450.97;5038644;28;45436;-53
2021/12/24 09:02:30;;;;;;;;;31.00;26.25;;;;;9.66;83.75;100452.50;5038138;28;46172;-54
2021/12/24 09:04:55;;;;;;;;;20.25;18.75;;;;;9.68;83.37;100447.03;5038428;28;45252;-49
2021/12/24 09:07:21;;;;;;;;;26.25;20.25;;;;;9.67;83.11;100459.50;5038559;28;45375;-52
2021/12/24 09:09:46;;;;;;;;;25.75;22.25;;;;;9.70;83.17;100459.19;5038581;28;45203;-52
2021/12/24 09:12:11;;;;;;;;;37.75;31.25;;;;;9.73;83.60;100458.91;5038179;28;46204;-52
2021/12/24 09:14:37;;;;;;;;;35.25;24.00;;;;;9.77;83.55;100454.13;5038098;28;45375;-50
2021/12/24 09:17:03;;;;;;;;;18.00;17.33;;;;;9.82;82.82;100462.50;5037975;28;45734;-53
2021/12/24 09:19:30;;;;;;;;;35.00;28.00;;;;;9.86;83.15;100463.00;5038259;28;45392;-52
2021/12/24 09:21:57;;;;;;;;;26.75;21.00;;;;;9.87;83.15;100459.38;5038256;28;46298;-49
2021/12/24 09:24:25;;;;;;;;;24.75;20.25;;;;;9.90;83.28;100473.22;5038106;28;45456;-50
2021/12/24 09:26:56;;;;;;;;;22.75;19.00;;;;;9.92;82.76;100457.94;5038448;28;45263;-51
2021/12/24 09:29:22;;;;;;;;;22.67;20.00;;;;;9.97;82.99;100462.81;5020474;28;45518;-52
2021/12/24 09:31:47;;;;;;;;;19.00;18.33;;;;;10.00;82.42;100470.50;5037716;28;45406;-51
2021/12/24 09:34:13;;;;;;;;;29.00;18.67;;;;;10.02;82.71;100465.00;5037831;28;45327;-50
2021/12/24 09:36:39;;;;;;;;;27.33;21.00;;;;;10.06;81.86;100464.56;5037994;28;45290;-52
2021/12/24 09:39:05;;;;;;;;;22.67;17.67;;;;;10.04;82.45;100455.09;5037937;28;45414;-52
2021/12/24 09:41:32;;;;;;;;;24.00;19.00;;;;;10.12;82.58;100463.16;5038005;28;46341;-51
2021/12/24 09:44:00;;;;;;;;;18.33;18.33;;;;;10.18;82.27;100458.03;5037563;28;45488;-51
2021/12/24 09:46:27;;;;;;;;;23.33;15.67;;;;;10.13;82.31;100433.75;5037643;28;45372;-53
2021/12/24 09:48:54;;;;;;;;;20.67;18.00;;;;;10.25;82.07;100442.38;5037983;28;45271;-52
2021/12/24 09:51:23;;;;;;;;;22.67;21.33;;;;;10.36;82.42;100439.47;5037442;28;46222;-52
2021/12/24 09:53:49;;;;;;;;;24.67;18.00;;;;;10.50;81.91;100440.78;5037492;28;45417;-50
2021/12/24 09:56:14;;;;;;;;;23.00;17.67;;;;;10.57;81.61;100448.94;5037482;28;45306;-51
2021/12/24 09:58:40;;;;;;;;;18.33;15.00;;;;;10.64;81.06;100453.50;5038015;28;45373;-52
2021/12/24 10:01:05;;;;;;;;;21.67;17.33;;;;;10.65;81.23;100460.50;5037333;28;46088;-51
2021/12/24 10:03:34;;;;;;;;;16.00;16.00;;;;;10.69;81.21;100453.03;5037433;28;45431;-54
2021/12/24 10:06:00;;;;;;;;;25.00;20.00;;;;;10.73;80.93;100457.91;5037369;28;45227;-49
2021/12/24 10:08:26;;;;;;;;;17.67;15.00;;;;;10.74;80.29;100443.63;5036631;28;45337;-50
2021/12/24 10:11:01;;;;;;;;;23.33;15.33;;;;;10.77;80.68;100421.19;5019348;28;46371;-52
2021/12/24 10:13:29;;;;;;;;;20.33;17.67;;;;;10.85;80.64;100417.75;5037378;28;45318;-52
2021/12/24 10:16:00;;;;;;;;;16.00;14.33;;;;;10.89;80.17;100424.41;5037474;28;45374;-51
2021/12/24 10:18:34;;;;;;;;;27.33;17.67;;;;;10.98;80.45;100418.16;5017484;28;45378;-51
2021/12/24 10:21:23;;;;;;;;;21.67;18.67;;;;;11.19;80.04;100415.09;5016984;28;47168;-50
2021/12/24 10:23:53;;;;;;;;;21.67;18.67;;;;;11.30;79.39;100422.81;5017113;28;45395;-51
2021/12/24 10:26:20;;;;;;;;;17.33;15.33;;;;;11.37;79.22;100423.84;5017268;28;45264;-52
2021/12/24 10:29:07;;;;;;;;;24.67;16.67;;;;;11.35;79.08;100431.16;5017205;28;45399;-52
2021/12/24 10:31:40;;;;;;;;;16.67;16.33;;;;;11.28;78.76;100408.81;5016756;28;47070;-53
2021/12/24 10:34:12;;;;;;;;;23.00;17.67;;;;;11.20;78.97;100416.78;5017103;28;45454;-52
2021/12/24 10:36:51;;;;;;;;;27.33;18.33;;;;;11.13;79.46;100418.41;5017066;28;45289;-52
2021/12/24 10:39:18;;;;;;;;;22.33;15.00;;;;;11.12;79.75;100412.22;5017093;28;45322;-51
2021/12/24 10:41:47;;;;;;;;;25.67;17.33;;;;;11.12;79.80;100401.59;4999068;28;46211;-51
2021/12/24 10:44:16;;;;;;;;;15.67;15.00;;;;;11.13;79.66;100403.28;5016863;28;45239;-52
2021/12/24 10:46:57;;;;;;;;;22.67;16.00;;;;;11.09;79.90;100393.09;5016798;28;45302;-53
2021/12/24 10:49:37;;;;;;;;;14.00;9.33;;;;;11.30;79.50;100392.72;5017149;28;45346;-52
2021/12/24 10:55:15;;;;;;;;;20.67;20.00;;;;;11.77;77.78;100397.53;5016919;28;45185;-52
2021/12/24 10:57:42;;;;;;;;;21.33;17.00;;;;;11.62;78.34;100376.81;4917322;28;45436;-50
2021/12/24 11:00:20;;;;;;;;;26.33;18.67;;;;;11.65;77.97;100389.81;4917437;28;45442;-52
2021/12/24 11:02:52;;;;;;;;;20.67;18.00;;;;;11.61;77.89;100385.81;4917104;28;45426;-52
2021/12/24 11:05:33;;;;;;;;;23.00;16.67;;;;;11.53;78.19;100380.47;4916978;28;45404;-53
2021/12/24 11:08:00;;;;;;;;;23.00;18.00;;;;;11.50;78.37;100372.78;4917095;28;45337;-52
2021/12/24 11:10:38;;;;;;;;;22.00;17.00;;;;;11.44;78.34;100376.94;4917267;28;45380;-53
2021/12/24 11:13:09;;;;;;;;;17.00;16.00;;;;;11.38;78.71;100374.09;4916754;28;46533;-52
2021/12/24 11:15:47;;;;;;;;;16.33;16.33;;;;;11.35;78.48;100372.56;4916869;28;45256;-53
2021/12/24 11:18:27;;;;;;;;;17.33;15.33;;;;;11.24;78.89;100360.38;4953188;28;46351;-51
2021/12/24 11:21:20;;;;;;;;;21.00;14.33;;;;;11.22;79.11;100342.91;4959116;28;45519;-52
2021/12/24 11:23:46;;;;;;;;;20.67;17.67;;;;;11.16;79.05;100341.69;4881879;29;46221;-51
2021/12/24 11:26:17;;;;;;;;;26.67;19.67;;;;;11.10;79.24;100338.88;4882186;29;45502;-51
2021/12/24 11:28:43;;;;;;;;;29.33;21.33;;;;;11.11;79.92;100330.72;4882470;29;45570;-52
2021/12/24 11:31:12;;;;;;;;;21.67;19.67;;;;;11.11;79.61;100337.88;4899774;28;45610;-53
2021/12/24 11:33:40;;;;;;;;;25.33;21.67;;;;;11.08;79.69;100335.50;4939001;28;46199;-52
2021/12/24 11:36:08;;;;;;;;;19.33;13.67;;;;;11.06;79.31;100338.34;4939011;28;45197;-54
2021/12/24 11:38:38;;;;;;;;;22.00;16.00;;;;;11.06;79.81;100330.34;4939436;28;45510;-52
2021/12/24 11:41:08;;;;;;;;;23.00;20.33;;;;;11.04;80.11;100320.84;4939547;28;45407;-53
2021/12/24 11:43:36;;;;;;;;;19.67;18.33;;;;;11.04;80.09;100321.72;4939121;28;47127;-52
2021/12/24 11:46:05;;;;;;;;;20.67;19.00;;;;;11.06;79.81;100316.22;4939049;28;45390;-52
2021/12/24 11:48:33;;;;;;;;;29.33;21.00;;;;;11.09;80.04;100319.41;4939192;28;45325;-53
2021/12/24 11:51:04;;;;;;;;;19.67;19.00;;;;;11.10;79.74;100323.72;4939307;28;45409;-51
2021/12/24 11:53:33;;;;;;;;;26.00;21.33;;;;;11.11;80.04;100327.22;4938788;28;47278;-49
2021/12/24 11:56:06;;;;;;;;;27.33;19.67;;;;;11.07;80.16;100323.19;4938764;28;45414;-51
2021/12/24 11:58:32;;;;;;;;;22.00;18.00;;;;;11.11;79.83;100333.38;4938624;28;45569;-51
2021/12/24 12:01:03;;;;;;;;;17.00;17.00;;;;;11.14;79.79;100332.22;4998372;28;45483;-51
2021/12/24 12:03:34;;;;;;;;;22.33;16.00;;;;;11.12;79.79;100327.03;5039134;28;45439;-48
2021/12/24 12:06:00;;;;;;;;;26.67;19.67;;;;;11.12;79.79;100319.06;5039128;28;45419;-52
2021/12/24 12:08:26;;;;;;;;;26.00;16.00;;;;;11.12;79.73;100327.03;5039281;28;45274;-53
2021/12/24 12:11:18;;;;;;;;;25.00;18.33;;;;;11.12;79.64;100313.72;5039429;28;45320;-53
2021/12/24 12:13:47;;;;;;;;;32.67;20.67;;;;;11.15;79.93;100318.75;5039089;28;46144;-52
2021/12/24 12:16:22;;;;;;;;;16.00;13.67;;;;;11.17;79.97;100319.44;5039067;28;45325;-51
2021/12/24 12:19:04;;;;;;;;;27.33;21.67;;;;;11.18;79.54;100323.75;5039042;28;45391;-52
2021/12/24 12:21:44;;;;;;;;;17.00;17.00;;;;;11.19;79.56;100319.25;5039273;28;45371;-53
2021/12/24 12:26:41;;;;;;;;;23.33;19.00;;;;;11.15;79.98;100329.41;5038909;28;45480;-51
2021/12/24 12:29:15;;;;;;;;;20.33;16.33;;;;;11.16;79.68;100336.38;5038769;28;45409;-52
2021/12/24 12:31:41;;;;;;;;;22.00;17.33;;;;;11.16;79.67;100325.72;5038293;28;45418;-52
2021/12/24 12:34:38;;;;;;;;;20.33;13.67;;;;;11.14;79.71;100338.38;5038538;28;46195;-54
2021/12/24 12:37:30;;;;;;;;;23.00;16.33;;;;;11.14;80.06;100318.91;5039008;28;45418;-53
2021/12/24 12:40:33;;;;;;;;;21.00;17.33;;;;;11.14;79.84;100316.25;5038888;28;45329;-53
2021/12/24 12:43:05;;;;;;;;;19.67;17.33;;;;;11.15;80.08;100308.09;5038794;28;45389;-52
2021/12/24 12:45:35;;;;;;;;;18.00;17.33;;;;;11.14;80.15;100313.59;5038481;28;46229;-51
2021/12/24 12:48:05;;;;;;;;;24.33;17.00;;;;;11.15;80.35;100309.94;5038213;28;45275;-51
2021/12/24 12:50:30;;;;;;;;;25.33;21.33;;;;;11.17;80.24;100314.09;5038736;28;45272;-51
2021/12/24 12:53:35;;;;;;;;;30.33;20.00;;;;;11.18;80.14;100306.94;5038924;28;45399;-52
2021/12/24 12:56:19;;;;;;;;;21.33;19.00;;;;;11.20;80.01;100296.97;5020524;28;46320;-52
2021/12/24 12:59:06;;;;;;;;;53.75;37.00;;;;;11.27;80.01;100289.19;5038220;28;45524;-52
2021/12/24 13:01:33;;;;;;;;;21.67;16.67;;;;;11.35;80.00;100282.03;5038422;28;45414;-52
2021/12/24 13:04:00;;;;;;;;;24.33;20.67;;;;;11.44;78.96;100280.22;5038220;28;45521;-52
2021/12/24 13:06:43;;;;;;;;;17.67;13.00;;;;;11.53;79.18;100281.91;5037922;28;46379;-53
2021/12/24 13:09:17;;;;;;;;;23.00;18.67;;;;;11.57;79.43;100279.75;5038013;28;45286;-52
2021/12/24 13:11:46;;;;;;;;;25.00;19.00;;;;;11.55;78.68;100277.25;5038249;28;45353;-51
2021/12/24 13:14:14;;;;;;;;;18.00;14.67;;;;;11.52;78.66;100282.91;5038301;28;45476;-51